sensor_id;sensor_type;location;lat;lon;timestamp;P1;durP1;ratioP1;P2;durP2;ratioP2
3369;SDS011;42042;51.948;7.628;2023-09-18T00:02:26;9.27;;;8.13;;
3369;SDS011;42042;51.948;7.628;2023-09-18T00:04:56;8.53;;;7.60;;
3369;SDS011;42042;51.948;7.628;2023-09-18T00:07:25;9.13;;;8.23;;
3369;SDS011;42042;51.948;7.628;2023-09-18T00:09:52;9.30;;;8.10;;
3369;SDS011;42042;51.948;7.628;2023-09-18T00:12:19;8.57;;;7.73;;
3369;SDS011;42042;51.948;7.628;2023-09-18T00:14:47;8.67;;;7.80;;
3369;SDS011;42042;51.948;7.628;2023-09-18T00:17:15;10.10;;;8.10;;
3369;SDS011;42042;51.948;7.628;2023-09-18T00:19:44;10.87;;;7.90;;
3369;SDS011;42042;51.948;7.628;2023-09-18T00:22:11;9.63;;;8.70;;
3369;SDS011;42042;51.948;7.628;2023-09-18T00:24:40;9.77;;;8.97;;
3369;SDS011;42042;51.948;7.628;2023-09-18T00:27:07;10.03;;;8.40;;
3369;SDS011;42042;51.948;7.628;2023-09-18T00:29:35;9.50;;;8.50;;
3369;SDS011;42042;51.948;7.628;2023-09-18T00:32:03;10.93;;;8.03;;
3369;SDS011;42042;51.948;7.628;2023-09-18T00:34:30;9.60;;;8.70;;
3369;SDS011;42042;51.948;7.628;2023-09-18T00:36:57;9.70;;;8.77;;
3369;SDS011;42042;51.948;7.628;2023-09-18T00:39:25;9.67;;;8.87;;
3369;SDS011;42042;51.948;7.628;2023-09-18T00:41:53;13.20;;;9.70;;
3369;SDS011;42042;51.948;7.628;2023-09-18T00:44:21;9.67;;;8.20;;
3369;SDS011;42042;51.948;7.628;2023-09-18T00:46:48;10.80;;;8.07;;
3369;SDS011;42042;51.948;7.628;2023-09-18T00:49:15;9.20;;;8.23;;
3369;SDS011;42042;51.948;7.628;2023-09-18T00:51:43;10.33;;;8.60;;
3369;SDS011;42042;51.948;7.628;2023-09-18T00:54:12;9.80;;;8.90;;
3369;SDS011;42042;51.948;7.628;2023-09-18T00:56:41;10.50;;;8.27;;
3369;SDS011;42042;51.948;7.628;2023-09-18T00:59:10;12.13;;;10.07;;
3369;SDS011;42042;51.948;7.628;2023-09-18T01:01:38;10.10;;;9.17;;
3369;SDS011;42042;51.948;7.628;2023-09-18T01:04:06;9.97;;;8.97;;
3369;SDS011;42042;51.948;7.628;2023-09-18T01:06:34;8.90;;;8.00;;
3369;SDS011;42042;51.948;7.628;2023-09-18T01:09:02;9.13;;;8.10;;
3369;SDS011;42042;51.948;7.628;2023-09-18T01:11:39;9.80;;;8.80;;
3369;SDS011;42042;51.948;7.628;2023-09-18T01:14:12;9.30;;;8.40;;
3369;SDS011;42042;51.948;7.628;2023-09-18T01:16:42;10.53;;;9.53;;
3369;SDS011;42042;51.948;7.628;2023-09-18T01:19:11;11.33;;;9.13;;
3369;SDS011;42042;51.948;7.628;2023-09-18T01:21:38;12.70;;;8.67;;
3369;SDS011;42042;51.948;7.628;2023-09-18T01:24:07;14.07;;;9.80;;
3369;SDS011;42042;51.948;7.628;2023-09-18T01:26:34;8.60;;;7.80;;
3369;SDS011;42042;51.948;7.628;2023-09-18T01:29:01;10.73;;;9.00;;
3369;SDS011;42042;51.948;7.628;2023-09-18T01:31:29;15.47;;;8.43;;
3369;SDS011;42042;51.948;7.628;2023-09-18T01:33:56;11.67;;;8.83;;
3369;SDS011;42042;51.948;7.628;2023-09-18T01:36:23;9.30;;;8.50;;
3369;SDS011;42042;51.948;7.628;2023-09-18T01:38:51;12.07;;;9.70;;
3369;SDS011;42042;51.948;7.628;2023-09-18T01:41:20;10.07;;;8.80;;
3369;SDS011;42042;51.948;7.628;2023-09-18T01:43:48;10.27;;;8.50;;
3369;SDS011;42042;51.948;7.628;2023-09-18T01:46:15;11.57;;;9.07;;
3369;SDS011;42042;51.948;7.628;2023-09-18T01:48:46;12.73;;;8.90;;
3369;SDS011;42042;51.948;7.628;2023-09-18T01:51:14;16.63;;;8.93;;
3369;SDS011;42042;51.948;7.628;2023-09-18T01:53:43;10.87;;;9.60;;
3369;SDS011;42042;51.948;7.628;2023-09-18T01:56:10;9.27;;;8.37;;
3369;SDS011;42042;51.948;7.628;2023-09-18T01:58:39;8.73;;;7.93;;
3369;SDS011;42042;51.948;7.628;2023-09-18T02:01:06;8.60;;;7.80;;
3369;SDS011;42042;51.948;7.628;2023-09-18T02:03:33;9.33;;;8.37;;
3369;SDS011;42042;51.948;7.628;2023-09-18T02:06:00;11.90;;;8.90;;
3369;SDS011;42042;51.948;7.628;2023-09-18T02:08:28;11.20;;;8.63;;
3369;SDS011;42042;51.948;7.628;2023-09-18T02:10:55;10.37;;;9.37;;
3369;SDS011;42042;51.948;7.628;2023-09-18T02:13:22;12.10;;;10.43;;
3369;SDS011;42042;51.948;7.628;2023-09-18T02:15:51;11.70;;;9.77;;
3369;SDS011;42042;51.948;7.628;2023-09-18T02:18:18;13.17;;;10.47;;
3369;SDS011;42042;51.948;7.628;2023-09-18T02:20:45;13.10;;;9.80;;
3369;SDS011;42042;51.948;7.628;2023-09-18T02:23:14;12.77;;;9.53;;
3369;SDS011;42042;51.948;7.628;2023-09-18T02:25:41;10.27;;;9.27;;
3369;SDS011;42042;51.948;7.628;2023-09-18T02:28:08;12.90;;;10.17;;
3369;SDS011;42042;51.948;7.628;2023-09-18T02:30:36;13.50;;;9.60;;
3369;SDS011;42042;51.948;7.628;2023-09-18T02:33:05;11.30;;;10.10;;
3369;SDS011;42042;51.948;7.628;2023-09-18T02:35:32;10.13;;;8.93;;
3369;SDS011;42042;51.948;7.628;2023-09-18T02:37:59;11.70;;;9.50;;
3369;SDS011;42042;51.948;7.628;2023-09-18T02:40:27;14.07;;;10.43;;
3369;SDS011;42042;51.948;7.628;2023-09-18T02:42:54;12.63;;;9.17;;
3369;SDS011;42042;51.948;7.628;2023-09-18T02:45:22;11.53;;;10.33;;
3369;SDS011;42042;51.948;7.628;2023-09-18T02:47:49;10.30;;;9.17;;
3369;SDS011;42042;51.948;7.628;2023-09-18T02:50:17;13.57;;;9.87;;
3369;SDS011;42042;51.948;7.628;2023-09-18T02:52:45;11.33;;;9.23;;
3369;SDS011;42042;51.948;7.628;2023-09-18T02:55:12;12.17;;;10.37;;
3369;SDS011;42042;51.948;7.628;2023-09-18T02:57:39;13.67;;;10.97;;
3369;SDS011;42042;51.948;7.628;2023-09-18T03:00:07;14.13;;;10.50;;
3369;SDS011;42042;51.948;7.628;2023-09-18T03:02:35;10.80;;;9.70;;
3369;SDS011;42042;51.948;7.628;2023-09-18T03:05:03;11.60;;;9.40;;
3369;SDS011;42042;51.948;7.628;2023-09-18T03:07:31;11.37;;;9.80;;
3369;SDS011;42042;51.948;7.628;2023-09-18T03:09:59;11.53;;;10.30;;
3369;SDS011;42042;51.948;7.628;2023-09-18T03:12:26;12.73;;;9.77;;
3369;SDS011;42042;51.948;7.628;2023-09-18T03:14:53;15.33;;;9.40;;
3369;SDS011;42042;51.948;7.628;2023-09-18T03:17:20;12.67;;;9.63;;
3369;SDS011;42042;51.948;7.628;2023-09-18T03:19:47;14.50;;;10.97;;
3369;SDS011;42042;51.948;7.628;2023-09-18T03:22:15;10.70;;;9.23;;
3369;SDS011;42042;51.948;7.628;2023-09-18T03:24:43;14.30;;;10.60;;
3369;SDS011;42042;51.948;7.628;2023-09-18T03:27:11;16.87;;;10.73;;
3369;SDS011;42042;51.948;7.628;2023-09-18T03:29:38;11.20;;;9.27;;
3369;SDS011;42042;51.948;7.628;2023-09-18T03:32:05;9.87;;;8.97;;
3369;SDS011;42042;51.948;7.628;2023-09-18T03:34:37;14.23;;;8.93;;
3369;SDS011;42042;51.948;7.628;2023-09-18T03:37:04;13.40;;;10.10;;
3369;SDS011;42042;51.948;7.628;2023-09-18T03:39:31;11.60;;;9.27;;
3369;SDS011;42042;51.948;7.628;2023-09-18T03:42:00;9.43;;;6.53;;
3369;SDS011;42042;51.948;7.628;2023-09-18T03:44:27;4.40;;;4.00;;
3369;SDS011;42042;51.948;7.628;2023-09-18T03:46:54;4.10;;;3.70;;
3369;SDS011;42042;51.948;7.628;2023-09-18T03:49:22;2.70;;;1.87;;
3369;SDS011;42042;51.948;7.628;2023-09-18T03:51:49;3.47;;;3.17;;
3369;SDS011;42042;51.948;7.628;2023-09-18T03:54:16;2.70;;;2.50;;
3369;SDS011;42042;51.948;7.628;2023-09-18T03:56:43;4.17;;;2.83;;
3369;SDS011;42042;51.948;7.628;2023-09-18T03:59:12;13.10;;;6.10;;
3369;SDS011;42042;51.948;7.628;2023-09-18T04:01:39;6.07;;;4.57;;
3369;SDS011;42042;51.948;7.628;2023-09-18T04:04:07;2.60;;;2.40;;
3369;SDS011;42042;51.948;7.628;2023-09-18T04:06:37;7.27;;;4.47;;
3369;SDS011;42042;51.948;7.628;2023-09-18T04:09:04;4.30;;;3.60;;
3369;SDS011;42042;51.948;7.628;2023-09-18T04:11:32;4.67;;;3.80;;
3369;SDS011;42042;51.948;7.628;2023-09-18T04:13:59;5.10;;;2.77;;
3369;SDS011;42042;51.948;7.628;2023-09-18T04:16:29;2.90;;;2.50;;
3369;SDS011;42042;51.948;7.628;2023-09-18T04:19:00;2.53;;;2.30;;
3369;SDS011;42042;51.948;7.628;2023-09-18T04:21:27;1.73;;;1.63;;
3369;SDS011;42042;51.948;7.628;2023-09-18T04:23:55;9.30;;;6.27;;
3369;SDS011;42042;51.948;7.628;2023-09-18T04:26:23;3.77;;;2.90;;
3369;SDS011;42042;51.948;7.628;2023-09-18T04:28:54;1.33;;;1.23;;
3369;SDS011;42042;51.948;7.628;2023-09-18T04:31:21;26.67;;;2.47;;
3369;SDS011;42042;51.948;7.628;2023-09-18T04:33:50;7.17;;;2.23;;
3369;SDS011;42042;51.948;7.628;2023-09-18T04:36:17;0.80;;;0.80;;
3369;SDS011;42042;51.948;7.628;2023-09-18T04:38:44;1.00;;;0.97;;
3369;SDS011;42042;51.948;7.628;2023-09-18T04:41:11;1.30;;;1.20;;
3369;SDS011;42042;51.948;7.628;2023-09-18T04:43:39;0.70;;;0.70;;
3369;SDS011;42042;51.948;7.628;2023-09-18T04:46:07;0.70;;;0.70;;
3369;SDS011;42042;51.948;7.628;2023-09-18T04:48:34;2.87;;;1.50;;
3369;SDS011;42042;51.948;7.628;2023-09-18T04:51:03;0.70;;;0.70;;
3369;SDS011;42042;51.948;7.628;2023-09-18T04:53:31;0.80;;;0.80;;
3369;SDS011;42042;51.948;7.628;2023-09-18T04:55:58;1.13;;;0.87;;
3369;SDS011;42042;51.948;7.628;2023-09-18T04:58:25;0.70;;;0.70;;
3369;SDS011;42042;51.948;7.628;2023-09-18T05:00:53;0.90;;;0.90;;
3369;SDS011;42042;51.948;7.628;2023-09-18T05:03:21;2.10;;;1.90;;
3369;SDS011;42042;51.948;7.628;2023-09-18T05:05:48;1.80;;;1.70;;
3369;SDS011;42042;51.948;7.628;2023-09-18T05:08:16;5.13;;;1.17;;
3369;SDS011;42042;51.948;7.628;2023-09-18T05:10:44;0.70;;;0.70;;
3369;SDS011;42042;51.948;7.628;2023-09-18T05:13:12;1.00;;;1.00;;
3369;SDS011;42042;51.948;7.628;2023-09-18T05:15:39;1.57;;;1.47;;
3369;SDS011;42042;51.948;7.628;2023-09-18T05:18:07;1.30;;;1.20;;
3369;SDS011;42042;51.948;7.628;2023-09-18T05:20:34;1.40;;;1.30;;
3369;SDS011;42042;51.948;7.628;2023-09-18T05:23:02;0.70;;;0.70;;
3369;SDS011;42042;51.948;7.628;2023-09-18T05:25:30;0.70;;;0.70;;
3369;SDS011;42042;51.948;7.628;2023-09-18T05:27:58;1.00;;;0.97;;
3369;SDS011;42042;51.948;7.628;2023-09-18T05:30:26;0.70;;;0.70;;
3369;SDS011;42042;51.948;7.628;2023-09-18T05:32:54;0.70;;;0.70;;
3369;SDS011;42042;51.948;7.628;2023-09-18T05:35:21;0.70;;;0.70;;
3369;SDS011;42042;51.948;7.628;2023-09-18T05:37:49;0.70;;;0.70;;
3369;SDS011;42042;51.948;7.628;2023-09-18T05:40:17;0.70;;;0.70;;
3369;SDS011;42042;51.948;7.628;2023-09-18T05:42:46;0.70;;;0.70;;
3369;SDS011;42042;51.948;7.628;2023-09-18T05:45:14;0.70;;;0.70;;
3369;SDS011;42042;51.948;7.628;2023-09-18T05:47:41;0.70;;;0.70;;
3369;SDS011;42042;51.948;7.628;2023-09-18T05:50:09;0.70;;;0.70;;
3369;SDS011;42042;51.948;7.628;2023-09-18T05:52:40;0.70;;;0.70;;
3369;SDS011;42042;51.948;7.628;2023-09-18T05:55:07;0.70;;;0.70;;
3369;SDS011;42042;51.948;7.628;2023-09-18T05:57:35;0.70;;;0.70;;
3369;SDS011;42042;51.948;7.628;2023-09-18T06:00:04;0.70;;;0.70;;
3369;SDS011;42042;51.948;7.628;2023-09-18T06:02:31;0.70;;;0.70;;
3369;SDS011;42042;51.948;7.628;2023-09-18T06:04:59;0.70;;;0.70;;
3369;SDS011;42042;51.948;7.628;2023-09-18T06:07:28;0.70;;;0.70;;
3369;SDS011;42042;51.948;7.628;2023-09-18T06:09:55;0.70;;;0.70;;
3369;SDS011;42042;51.948;7.628;2023-09-18T06:12:22;0.70;;;0.70;;
3369;SDS011;42042;51.948;7.628;2023-09-18T06:14:50;0.70;;;0.70;;
3369;SDS011;42042;51.948;7.628;2023-09-18T06:17:19;0.70;;;0.70;;
3369;SDS011;42042;51.948;7.628;2023-09-18T06:19:46;0.70;;;0.70;;
3369;SDS011;42042;51.948;7.628;2023-09-18T06:22:13;0.70;;;0.70;;
3369;SDS011;42042;51.948;7.628;2023-09-18T06:24:42;0.70;;;0.70;;
3369;SDS011;42042;51.948;7.628;2023-09-18T06:27:09;0.70;;;0.70;;
3369;SDS011;42042;51.948;7.628;2023-09-18T06:29:37;0.70;;;0.70;;
3369;SDS011;42042;51.948;7.628;2023-09-18T06:32:04;0.70;;;0.70;;
3369;SDS011;42042;51.948;7.628;2023-09-18T06:34:34;0.70;;;0.70;;
3369;SDS011;42042;51.948;7.628;2023-09-18T06:37:01;0.70;;;0.70;;
3369;SDS011;42042;51.948;7.628;2023-09-18T06:39:29;0.70;;;0.70;;
3369;SDS011;42042;51.948;7.628;2023-09-18T06:41:56;0.70;;;0.70;;
3369;SDS011;42042;51.948;7.628;2023-09-18T06:44:23;0.70;;;0.70;;
3369;SDS011;42042;51.948;7.628;2023-09-18T06:46:50;0.80;;;0.80;;
3369;SDS011;42042;51.948;7.628;2023-09-18T06:49:18;0.70;;;0.70;;
3369;SDS011;42042;51.948;7.628;2023-09-18T06:51:47;0.70;;;0.70;;
3369;SDS011;42042;51.948;7.628;2023-09-18T06:54:14;0.70;;;0.70;;
3369;SDS011;42042;51.948;7.628;2023-09-18T06:56:41;0.70;;;0.70;;
3369;SDS011;42042;51.948;7.628;2023-09-18T06:59:09;0.70;;;0.70;;
3369;SDS011;42042;51.948;7.628;2023-09-18T07:01:36;0.70;;;0.70;;
3369;SDS011;42042;51.948;7.628;2023-09-18T07:04:04;0.70;;;0.70;;
3369;SDS011;42042;51.948;7.628;2023-09-18T07:06:31;0.70;;;0.70;;
3369;SDS011;42042;51.948;7.628;2023-09-18T07:09:00;0.70;;;0.70;;
3369;SDS011;42042;51.948;7.628;2023-09-18T07:11:30;0.70;;;0.70;;
3369;SDS011;42042;51.948;7.628;2023-09-18T07:13:57;0.70;;;0.70;;
3369;SDS011;42042;51.948;7.628;2023-09-18T07:16:24;0.70;;;0.67;;
3369;SDS011;42042;51.948;7.628;2023-09-18T07:18:52;0.70;;;0.70;;
3369;SDS011;42042;51.948;7.628;2023-09-18T07:21:19;0.70;;;0.70;;
3369;SDS011;42042;51.948;7.628;2023-09-18T07:23:46;0.70;;;0.70;;
3369;SDS011;42042;51.948;7.628;2023-09-18T07:26:15;0.70;;;0.70;;
3369;SDS011;42042;51.948;7.628;2023-09-18T07:28:42;0.70;;;0.60;;
3369;SDS011;42042;51.948;7.628;2023-09-18T07:31:09;0.70;;;0.70;;
3369;SDS011;42042;51.948;7.628;2023-09-18T07:33:37;0.70;;;0.70;;
3369;SDS011;42042;51.948;7.628;2023-09-18T07:36:04;0.70;;;0.70;;
3369;SDS011;42042;51.948;7.628;2023-09-18T07:38:31;0.70;;;0.70;;
3369;SDS011;42042;51.948;7.628;2023-09-18T07:40:58;0.70;;;0.70;;
3369;SDS011;42042;51.948;7.628;2023-09-18T07:43:27;1.10;;;1.10;;
3369;SDS011;42042;51.948;7.628;2023-09-18T07:45:54;0.70;;;0.70;;
3369;SDS011;42042;51.948;7.628;2023-09-18T07:48:22;0.70;;;0.70;;
3369;SDS011;42042;51.948;7.628;2023-09-18T07:50:49;0.73;;;0.73;;
3369;SDS011;42042;51.948;7.628;2023-09-18T07:53:16;0.70;;;0.70;;
3369;SDS011;42042;51.948;7.628;2023-09-18T07:55:44;0.70;;;0.70;;
3369;SDS011;42042;51.948;7.628;2023-09-18T07:58:11;0.70;;;0.70;;
3369;SDS011;42042;51.948;7.628;2023-09-18T08:00:41;0.70;;;0.70;;
3369;SDS011;42042;51.948;7.628;2023-09-18T08:03:08;0.73;;;0.73;;
3369;SDS011;42042;51.948;7.628;2023-09-18T08:05:35;0.70;;;0.70;;
3369;SDS011;42042;51.948;7.628;2023-09-18T08:08:03;0.70;;;0.70;;
3369;SDS011;42042;51.948;7.628;2023-09-18T08:10:31;0.73;;;0.73;;
3369;SDS011;42042;51.948;7.628;2023-09-18T08:12:58;0.70;;;0.70;;
3369;SDS011;42042;51.948;7.628;2023-09-18T08:15:25;0.70;;;0.60;;
3369;SDS011;42042;51.948;7.628;2023-09-18T08:17:55;0.70;;;0.60;;
3369;SDS011;42042;51.948;7.628;2023-09-18T08:20:23;0.70;;;0.70;;
3369;SDS011;42042;51.948;7.628;2023-09-18T08:22:51;0.70;;;0.70;;
3369;SDS011;42042;51.948;7.628;2023-09-18T08:25:18;0.70;;;0.70;;
3369;SDS011;42042;51.948;7.628;2023-09-18T08:27:45;0.70;;;0.70;;
3369;SDS011;42042;51.948;7.628;2023-09-18T08:30:13;0.70;;;0.70;;
3369;SDS011;42042;51.948;7.628;2023-09-18T08:32:42;0.70;;;0.70;;
3369;SDS011;42042;51.948;7.628;2023-09-18T08:35:11;0.77;;;0.77;;
3369;SDS011;42042;51.948;7.628;2023-09-18T08:37:39;0.70;;;0.70;;
3369;SDS011;42042;51.948;7.628;2023-09-18T08:40:07;0.70;;;0.70;;
3369;SDS011;42042;51.948;7.628;2023-09-18T08:42:38;0.70;;;0.70;;
3369;SDS011;42042;51.948;7.628;2023-09-18T08:45:06;0.70;;;0.70;;
3369;SDS011;42042;51.948;7.628;2023-09-18T08:47:35;0.70;;;0.70;;
3369;SDS011;42042;51.948;7.628;2023-09-18T08:50:04;0.70;;;0.70;;
3369;SDS011;42042;51.948;7.628;2023-09-18T08:52:33;0.70;;;0.70;;
3369;SDS011;42042;51.948;7.628;2023-09-18T08:55:02;0.70;;;0.70;;
3369;SDS011;42042;51.948;7.628;2023-09-18T08:57:29;0.70;;;0.70;;
3369;SDS011;42042;51.948;7.628;2023-09-18T08:59:56;0.70;;;0.70;;
3369;SDS011;42042;51.948;7.628;2023-09-18T09:02:27;0.70;;;0.70;;
3369;SDS011;42042;51.948;7.628;2023-09-18T09:04:54;0.70;;;0.70;;
3369;SDS011;42042;51.948;7.628;2023-09-18T09:07:21;0.70;;;0.70;;
3369;SDS011;42042;51.948;7.628;2023-09-18T09:09:49;0.70;;;0.60;;
3369;SDS011;42042;51.948;7.628;2023-09-18T09:12:17;0.70;;;0.70;;
3369;SDS011;42042;51.948;7.628;2023-09-18T09:15:05;0.70;;;0.70;;
3369;SDS011;42042;51.948;7.628;2023-09-18T09:17:33;0.70;;;0.70;;
3369;SDS011;42042;51.948;7.628;2023-09-18T09:20:07;0.70;;;0.70;;
3369;SDS011;42042;51.948;7.628;2023-09-18T09:22:35;0.70;;;0.70;;
3369;SDS011;42042;51.948;7.628;2023-09-18T09:25:04;0.70;;;0.70;;
3369;SDS011;42042;51.948;7.628;2023-09-18T09:27:41;0.70;;;0.67;;
3369;SDS011;42042;51.948;7.628;2023-09-18T09:30:09;0.70;;;0.70;;
3369;SDS011;42042;51.948;7.628;2023-09-18T09:32:37;0.70;;;0.70;;
3369;SDS011;42042;51.948;7.628;2023-09-18T09:35:05;0.70;;;0.70;;
3369;SDS011;42042;51.948;7.628;2023-09-18T09:37:32;0.70;;;0.70;;
3369;SDS011;42042;51.948;7.628;2023-09-18T09:40:03;0.70;;;0.70;;
3369;SDS011;42042;51.948;7.628;2023-09-18T09:42:39;0.70;;;0.70;;
3369;SDS011;42042;51.948;7.628;2023-09-18T09:45:10;0.70;;;0.70;;
3369;SDS011;42042;51.948;7.628;2023-09-18T09:47:38;0.70;;;0.70;;
3369;SDS011;42042;51.948;7.628;2023-09-18T09:50:06;0.70;;;0.70;;
3369;SDS011;42042;51.948;7.628;2023-09-18T09:52:34;0.70;;;0.60;;
3369;SDS011;42042;51.948;7.628;2023-09-18T09:55:02;0.70;;;0.70;;
3369;SDS011;42042;51.948;7.628;2023-09-18T09:57:30;0.70;;;0.70;;
3369;SDS011;42042;51.948;7.628;2023-09-18T10:00:04;0.70;;;0.70;;
3369;SDS011;42042;51.948;7.628;2023-09-18T10:02:47;0.70;;;0.70;;
3369;SDS011;42042;51.948;7.628;2023-09-18T10:05:15;0.80;;;0.80;;
3369;SDS011;42042;51.948;7.628;2023-09-18T10:07:43;0.70;;;0.70;;
3369;SDS011;42042;51.948;7.628;2023-09-18T10:10:10;0.70;;;0.70;;
3369;SDS011;42042;51.948;7.628;2023-09-18T10:12:38;0.70;;;0.70;;
3369;SDS011;42042;51.948;7.628;2023-09-18T10:15:07;0.70;;;0.70;;
3369;SDS011;42042;51.948;7.628;2023-09-18T10:17:36;0.70;;;0.70;;
3369;SDS011;42042;51.948;7.628;2023-09-18T10:20:11;0.70;;;0.70;;
3369;SDS011;42042;51.948;7.628;2023-09-18T10:22:45;0.70;;;0.70;;
3369;SDS011;42042;51.948;7.628;2023-09-18T10:25:14;0.70;;;0.70;;
3369;SDS011;42042;51.948;7.628;2023-09-18T10:27:43;0.70;;;0.70;;
3369;SDS011;42042;51.948;7.628;2023-09-18T10:30:13;0.70;;;0.70;;
3369;SDS011;42042;51.948;7.628;2023-09-18T10:32:43;0.70;;;0.70;;
3369;SDS011;42042;51.948;7.628;2023-09-18T10:35:11;0.70;;;0.70;;
3369;SDS011;42042;51.948;7.628;2023-09-18T10:37:38;0.70;;;0.70;;
3369;SDS011;42042;51.948;7.628;2023-09-18T10:40:09;0.70;;;0.70;;
3369;SDS011;42042;51.948;7.628;2023-09-18T10:42:37;0.70;;;0.70;;
3369;SDS011;42042;51.948;7.628;2023-09-18T10:45:05;0.80;;;0.80;;
3369;SDS011;42042;51.948;7.628;2023-09-18T10:47:37;0.70;;;0.70;;
3369;SDS011;42042;51.948;7.628;2023-09-18T10:50:05;0.70;;;0.70;;
3369;SDS011;42042;51.948;7.628;2023-09-18T10:52:34;0.70;;;0.70;;
3369;SDS011;42042;51.948;7.628;2023-09-18T10:55:01;0.70;;;0.70;;
3369;SDS011;42042;51.948;7.628;2023-09-18T10:57:32;0.80;;;0.80;;
3369;SDS011;42042;51.948;7.628;2023-09-18T11:00:01;0.70;;;0.70;;
3369;SDS011;42042;51.948;7.628;2023-09-18T11:02:40;0.70;;;0.70;;
3369;SDS011;42042;51.948;7.628;2023-09-18T11:05:07;0.70;;;0.70;;
3369;SDS011;42042;51.948;7.628;2023-09-18T11:07:34;0.70;;;0.70;;
3369;SDS011;42042;51.948;7.628;2023-09-18T11:12:44;0.70;;;0.60;;
3369;SDS011;42042;51.948;7.628;2023-09-18T11:15:24;0.70;;;0.70;;
3369;SDS011;42042;51.948;7.628;2023-09-18T11:17:59;0.70;;;0.70;;
3369;SDS011;42042;51.948;7.628;2023-09-18T11:20:27;0.70;;;0.70;;
3369;SDS011;42042;51.948;7.628;2023-09-18T11:22:56;0.80;;;0.80;;
3369;SDS011;42042;51.948;7.628;2023-09-18T11:25:36;0.70;;;0.60;;
3369;SDS011;42042;51.948;7.628;2023-09-18T11:28:05;0.70;;;0.70;;
3369;SDS011;42042;51.948;7.628;2023-09-18T11:30:33;0.70;;;0.70;;
3369;SDS011;42042;51.948;7.628;2023-09-18T11:33:03;0.70;;;0.70;;
3369;SDS011;42042;51.948;7.628;2023-09-18T11:35:31;0.70;;;0.70;;
3369;SDS011;42042;51.948;7.628;2023-09-18T11:38:03;0.70;;;0.70;;
3369;SDS011;42042;51.948;7.628;2023-09-18T11:40:31;0.70;;;0.70;;
3369;SDS011;42042;51.948;7.628;2023-09-18T11:43:19;0.70;;;0.70;;
3369;SDS011;42042;51.948;7.628;2023-09-18T11:45:49;0.80;;;0.80;;
3369;SDS011;42042;51.948;7.628;2023-09-18T11:48:18;0.70;;;0.70;;
3369;SDS011;42042;51.948;7.628;2023-09-18T11:50:46;0.70;;;0.70;;
3369;SDS011;42042;51.948;7.628;2023-09-18T11:53:16;0.70;;;0.70;;
3369;SDS011;42042;51.948;7.628;2023-09-18T11:55:44;0.70;;;0.70;;
3369;SDS011;42042;51.948;7.628;2023-09-18T11:58:12;0.70;;;0.70;;
3369;SDS011;42042;51.948;7.628;2023-09-18T12:00:39;0.70;;;0.70;;
3369;SDS011;42042;51.948;7.628;2023-09-18T12:03:19;0.70;;;0.60;;
3369;SDS011;42042;51.948;7.628;2023-09-18T12:05:57;0.70;;;0.70;;
3369;SDS011;42042;51.948;7.628;2023-09-18T12:08:25;0.70;;;0.60;;
3369;SDS011;42042;51.948;7.628;2023-09-18T12:10:52;0.70;;;0.70;;
3369;SDS011;42042;51.948;7.628;2023-09-18T12:13:20;0.70;;;0.70;;
3369;SDS011;42042;51.948;7.628;2023-09-18T12:15:47;0.70;;;0.70;;
3369;SDS011;42042;51.948;7.628;2023-09-18T12:18:15;0.70;;;0.70;;
3369;SDS011;42042;51.948;7.628;2023-09-18T12:20:47;0.70;;;0.70;;
3369;SDS011;42042;51.948;7.628;2023-09-18T12:23:15;0.70;;;0.70;;
3369;SDS011;42042;51.948;7.628;2023-09-18T12:25:44;0.70;;;0.70;;
3369;SDS011;42042;51.948;7.628;2023-09-18T12:28:12;0.70;;;0.70;;
3369;SDS011;42042;51.948;7.628;2023-09-18T12:30:41;0.70;;;0.70;;
3369;SDS011;42042;51.948;7.628;2023-09-18T12:33:08;0.70;;;0.70;;
3369;SDS011;42042;51.948;7.628;2023-09-18T12:35:35;0.70;;;0.70;;
3369;SDS011;42042;51.948;7.628;2023-09-18T12:38:12;0.70;;;0.70;;
3369;SDS011;42042;51.948;7.628;2023-09-18T12:40:40;0.70;;;0.70;;
3369;SDS011;42042;51.948;7.628;2023-09-18T12:43:09;0.70;;;0.70;;
3369;SDS011;42042;51.948;7.628;2023-09-18T12:45:36;0.70;;;0.70;;
3369;SDS011;42042;51.948;7.628;2023-09-18T12:48:03;0.70;;;0.70;;
3369;SDS011;42042;51.948;7.628;2023-09-18T12:50:31;0.70;;;0.60;;
3369;SDS011;42042;51.948;7.628;2023-09-18T12:53:07;0.70;;;0.70;;
3369;SDS011;42042;51.948;7.628;2023-09-18T12:55:35;0.70;;;0.70;;
3369;SDS011;42042;51.948;7.628;2023-09-18T12:58:02;0.70;;;0.70;;
3369;SDS011;42042;51.948;7.628;2023-09-18T13:00:32;0.70;;;0.70;;
3369;SDS011;42042;51.948;7.628;2023-09-18T13:03:00;0.70;;;0.60;;
3369;SDS011;42042;51.948;7.628;2023-09-18T13:05:29;0.70;;;0.70;;
3369;SDS011;42042;51.948;7.628;2023-09-18T13:08:01;0.70;;;0.70;;
3369;SDS011;42042;51.948;7.628;2023-09-18T13:10:30;0.70;;;0.70;;
3369;SDS011;42042;51.948;7.628;2023-09-18T13:13:07;0.70;;;0.70;;
3369;SDS011;42042;51.948;7.628;2023-09-18T13:15:34;0.70;;;0.70;;
3369;SDS011;42042;51.948;7.628;2023-09-18T13:18:09;0.70;;;0.70;;
3369;SDS011;42042;51.948;7.628;2023-09-18T13:20:37;0.70;;;0.70;;
3369;SDS011;42042;51.948;7.628;2023-09-18T13:23:05;0.70;;;0.70;;
3369;SDS011;42042;51.948;7.628;2023-09-18T13:25:34;0.70;;;0.70;;
3369;SDS011;42042;51.948;7.628;2023-09-18T13:28:03;0.80;;;0.80;;
3369;SDS011;42042;51.948;7.628;2023-09-18T13:30:30;0.70;;;0.70;;
3369;SDS011;42042;51.948;7.628;2023-09-18T13:33:02;0.70;;;0.70;;
3369;SDS011;42042;51.948;7.628;2023-09-18T13:35:31;0.70;;;0.70;;
3369;SDS011;42042;51.948;7.628;2023-09-18T13:37:58;0.70;;;0.70;;
3369;SDS011;42042;51.948;7.628;2023-09-18T13:40:25;0.70;;;0.63;;
3369;SDS011;42042;51.948;7.628;2023-09-18T13:42:54;0.70;;;0.70;;
3369;SDS011;42042;51.948;7.628;2023-09-18T13:45:21;0.70;;;0.70;;
3369;SDS011;42042;51.948;7.628;2023-09-18T13:47:49;0.70;;;0.70;;
3369;SDS011;42042;51.948;7.628;2023-09-18T13:50:17;0.70;;;0.70;;
3369;SDS011;42042;51.948;7.628;2023-09-18T13:52:44;0.70;;;0.70;;
3369;SDS011;42042;51.948;7.628;2023-09-18T13:55:11;0.80;;;0.80;;
3369;SDS011;42042;51.948;7.628;2023-09-18T13:57:39;0.70;;;0.70;;
3369;SDS011;42042;51.948;7.628;2023-09-18T14:00:08;0.70;;;0.70;;
3369;SDS011;42042;51.948;7.628;2023-09-18T14:02:37;0.70;;;0.70;;
3369;SDS011;42042;51.948;7.628;2023-09-18T14:05:04;0.80;;;0.80;;
3369;SDS011;42042;51.948;7.628;2023-09-18T14:07:32;0.70;;;0.70;;
3369;SDS011;42042;51.948;7.628;2023-09-18T14:09:59;0.70;;;0.70;;
3369;SDS011;42042;51.948;7.628;2023-09-18T14:12:28;0.70;;;0.70;;
3369;SDS011;42042;51.948;7.628;2023-09-18T14:14:56;0.70;;;0.70;;
3369;SDS011;42042;51.948;7.628;2023-09-18T14:17:26;0.70;;;0.70;;
3369;SDS011;42042;51.948;7.628;2023-09-18T14:19:53;0.70;;;0.70;;
3369;SDS011;42042;51.948;7.628;2023-09-18T14:22:20;0.70;;;0.70;;
3369;SDS011;42042;51.948;7.628;2023-09-18T14:24:47;0.70;;;0.70;;
3369;SDS011;42042;51.948;7.628;2023-09-18T14:27:15;0.70;;;0.70;;
3369;SDS011;42042;51.948;7.628;2023-09-18T14:29:42;0.70;;;0.70;;
3369;SDS011;42042;51.948;7.628;2023-09-18T14:32:10;0.77;;;0.77;;
3369;SDS011;42042;51.948;7.628;2023-09-18T14:34:38;0.70;;;0.70;;
3369;SDS011;42042;51.948;7.628;2023-09-18T14:37:05;0.70;;;0.70;;
3369;SDS011;42042;51.948;7.628;2023-09-18T14:39:34;0.70;;;0.67;;
3369;SDS011;42042;51.948;7.628;2023-09-18T14:42:01;0.70;;;0.70;;
3369;SDS011;42042;51.948;7.628;2023-09-18T14:44:28;0.70;;;0.70;;
3369;SDS011;42042;51.948;7.628;2023-09-18T14:46:55;0.70;;;0.70;;
3369;SDS011;42042;51.948;7.628;2023-09-18T14:49:23;0.70;;;0.70;;
3369;SDS011;42042;51.948;7.628;2023-09-18T14:51:53;0.70;;;0.70;;
3369;SDS011;42042;51.948;7.628;2023-09-18T14:54:20;0.70;;;0.70;;
3369;SDS011;42042;51.948;7.628;2023-09-18T14:56:47;0.70;;;0.70;;
3369;SDS011;42042;51.948;7.628;2023-09-18T14:59:15;0.70;;;0.70;;
3369;SDS011;42042;51.948;7.628;2023-09-18T15:01:42;0.70;;;0.70;;
3369;SDS011;42042;51.948;7.628;2023-09-18T15:04:09;0.70;;;0.70;;
3369;SDS011;42042;51.948;7.628;2023-09-18T15:06:37;0.70;;;0.70;;
3369;SDS011;42042;51.948;7.628;2023-09-18T15:09:05;1.07;;;0.97;;